Time;durP1;ratioP1;P1;durP2;ratioP2;P2;SDS_P1;SDS_P2;PMS_P1;PMS_P2;Temp;Humidity;BMP_temperature;BMP_pressure;BME280_temperature;BME280_humidity;BME280_pressure;Samples;Min_cycle;Max_cycle;Signal;HPM_P1;HPM_P2
2023/07/08 00:00:15;;;;;;;;;;;;;;;18.52;29.50;95773.94;4961031;28;19925;-68
2023/07/08 00:02:41;;;;;;;;;;;;;;;18.62;30.09;95776.16;4965143;28;19961;-68
2023/07/08 00:05:07;;;;;;;;;;;;;;;18.59;29.87;95768.53;4964862;28;19984;-68
2023/07/08 00:07:32;;;;;;;;;;;;;;;18.54;30.06;95767.31;4966339;28;20032;-68
2023/07/08 00:09:57;;;;;;;;;;;;;;;18.59;29.62;95765.84;4956670;28;19922;-68
2023/07/08 00:12:22;;;;;;;;;;;;;;;18.53;29.67;95768.34;4964230;28;19925;-68
2023/07/08 00:14:48;;;;;;;;;;;;;;;18.52;30.30;95764.00;4973730;28;19918;-68
2023/07/08 00:17:13;;;;;;;;;;;;;;;18.49;29.97;95764.44;4977560;28;20448;-68
2023/07/08 00:19:38;;;;;;;;;;;;;;;18.45;29.51;95763.25;4974953;28;19941;-68
2023/07/08 00:22:13;;;;;;;;;;;;;;;18.51;29.47;95761.53;4964211;28;19922;-68
2023/07/08 00:24:39;;;;;;;;;;;;;;;18.48;29.47;95760.09;4966400;28;20134;-67
2023/07/08 00:27:04;;;;;;;;;;;;;;;18.46;29.67;95762.19;4967186;28;20208;-68
2023/07/08 00:29:30;;;;;;;;;;;;;;;18.41;29.59;95759.34;4955961;28;20192;-68
2023/07/08 00:31:55;;;;;;;;;;;;;;;18.36;29.61;95754.63;4967641;28;19925;-68
2023/07/08 00:34:20;;;;;;;;;;;;;;;18.34;30.05;95762.13;4969713;28;19980;-67
2023/07/08 00:36:45;;;;;;;;;;;;;;;18.30;29.68;95760.94;4965888;28;19988;-68
2023/07/08 00:39:14;;;;;;;;;;;;;;;18.29;29.79;95760.09;4964412;28;20355;-68
2023/07/08 00:41:40;;;;;;;;;;;;;;;18.28;30.07;95755.78;4965269;28;19914;-68
2023/07/08 00:44:07;;;;;;;;;;;;;;;18.28;30.37;95761.16;4963993;28;19918;-68
2023/07/08 00:46:47;;;;;;;;;;;;;;;18.22;30.17;95759.34;4950084;28;19921;-68
2023/07/08 00:49:21;;;;;;;;;;;;;;;18.18;29.69;95763.53;4950961;28;19921;-68
2023/07/08 00:51:46;;;;;;;;;;;;;;;18.18;30.23;95769.75;4964016;28;20192;-68
2023/07/08 00:54:12;;;;;;;;;;;;;;;18.15;30.12;95764.00;4965946;28;20667;-68
2023/07/08 00:56:41;;;;;;;;;;;;;;;18.13;30.25;95764.22;4964231;28;19922;-68
2023/07/08 00:59:08;;;;;;;;;;;;;;;18.10;30.08;95766.53;4953853;28;19929;-68
2023/07/08 01:01:34;;;;;;;;;;;;;;;18.05;30.44;95764.50;4963986;28;19952;-67
2023/07/08 01:04:10;;;;;;;;;;;;;;;18.04;29.97;95763.69;4962890;28;19929;-68
2023/07/08 01:06:39;;;;;;;;;;;;;;;17.99;30.46;95754.63;4964475;28;20339;-65
2023/07/08 01:09:06;;;;;;;;;;;;;;;17.90;30.73;95749.53;4954647;28;19960;-68
2023/07/08 01:11:31;;;;;;;;;;;;;;;17.91;30.44;95748.47;4953831;28;19996;-67
2023/07/08 01:13:56;;;;;;;;;;;;;;;17.95;31.13;95745.34;4967150;28;19910;-66
2023/07/08 01:16:22;;;;;;;;;;;;;;;17.90;30.63;95748.69;4963178;28;20655;-67
2023/07/08 01:18:52;;;;;;;;;;;;;;;17.87;30.83;95752.66;4963442;28;19940;-67
2023/07/08 01:21:33;;;;;;;;;;;;;;;17.86;30.93;95753.72;4965562;28;19918;-68
2023/07/08 01:23:59;;;;;;;;;;;;;;;17.78;30.80;95752.09;4967290;28;19962;-65
2023/07/08 01:26:27;;;;;;;;;;;;;;;17.70;30.98;95755.06;4964778;28;20347;-67
2023/07/08 01:28:52;;;;;;;;;;;;;;;17.70;31.23;95752.38;4955701;28;20140;-66
2023/07/08 01:31:18;;;;;;;;;;;;;;;17.72;31.21;95749.47;4954522;28;19929;-67
2023/07/08 01:33:43;;;;;;;;;;;;;;;17.64;30.63;95750.56;4968740;28;19922;-66
2023/07/08 01:36:09;;;;;;;;;;;;;;;17.70;30.82;95754.22;4963037;28;19918;-66
2023/07/08 01:38:34;;;;;;;;;;;;;;;17.63;30.70;95749.75;4954518;28;20406;-67
2023/07/08 01:41:00;;;;;;;;;;;;;;;17.61;30.59;95742.94;4959410;28;20307;-68
2023/07/08 01:43:25;;;;;;;;;;;;;;;17.74;31.00;95742.81;4969467;28;20469;-66
2023/07/08 01:45:50;;;;;;;;;;;;;;;17.73;30.71;95741.16;4969864;28;19930;-67
2023/07/08 01:48:20;;;;;;;;;;;;;;;17.75;30.26;95740.94;4950532;28;19996;-68
2023/07/08 01:50:50;;;;;;;;;;;;;;;17.74;30.52;95734.72;4958755;28;19982;-66
2023/07/08 01:53:17;;;;;;;;;;;;;;;17.63;30.64;95736.28;4957031;28;19951;-66
2023/07/08 01:55:43;;;;;;;;;;;;;;;17.70;31.11;95732.69;4965406;28;20024;-67
2023/07/08 01:58:08;;;;;;;;;;;;;;;17.63;30.91;95730.91;4965719;28;20048;-67
2023/07/08 02:00:33;;;;;;;;;;;;;;;17.52;31.49;95735.13;4961388;28;19922;-66
2023/07/08 02:02:58;;;;;;;;;;;;;;;17.56;30.83;95732.81;4964929;28;20263;-66
2023/07/08 02:05:24;;;;;;;;;;;;;;;17.62;31.49;95717.66;4969607;28;20130;-67
2023/07/08 02:07:49;;;;;;;;;;;;;;;17.50;30.82;95726.44;4967779;28;20541;-67
2023/07/08 02:10:14;;;;;;;;;;;;;;;17.55;31.26;95725.78;4968424;28;19918;-67
2023/07/08 02:12:39;;;;;;;;;;;;;;;17.50;31.53;95718.38;4973968;28;19921;-67
2023/07/08 02:15:05;;;;;;;;;;;;;;;17.49;31.28;95724.81;4965896;28;19914;-66
2023/07/08 02:17:30;;;;;;;;;;;;;;;17.45;31.44;95715.53;4957149;28;19921;-66
2023/07/08 02:19:55;;;;;;;;;;;;;;;17.44;31.61;95721.13;4968050;28;19991;-68
2023/07/08 02:22:21;;;;;;;;;;;;;;;17.40;31.79;95710.78;4969539;28;19920;-67
2023/07/08 02:24:46;;;;;;;;;;;;;;;17.43;31.38;95709.53;4964359;28;20423;-67
2023/07/08 02:27:11;;;;;;;;;;;;;;;17.39;31.42;95709.16;4962940;28;19933;-67
2023/07/08 02:29:38;;;;;;;;;;;;;;;17.38;31.69;95706.69;4963086;28;19910;-66
2023/07/08 02:32:03;;;;;;;;;;;;;;;17.32;31.40;95704.84;4966430;28;20573;-68
2023/07/08 02:34:29;;;;;;;;;;;;;;;17.34;30.82;95708.16;4964423;28;19914;-67
2023/07/08 02:36:56;;;;;;;;;;;;;;;17.34;31.63;95705.47;4969264;28;19953;-66
2023/07/08 02:39:21;;;;;;;;;;;;;;;17.32;31.54;95707.53;4965001;28;19924;-68
2023/07/08 02:41:46;;;;;;;;;;;;;;;17.26;32.00;95701.16;4964582;28;19914;-68
2023/07/08 02:44:11;;;;;;;;;;;;;;;17.24;31.37;95698.69;4964504;28;19929;-67
2023/07/08 02:46:37;;;;;;;;;;;;;;;17.27;31.44;95706.34;4968704;28;20383;-67
2023/07/08 02:49:02;;;;;;;;;;;;;;;17.25;31.67;95702.22;4964994;28;20326;-67
2023/07/08 02:51:27;;;;;;;;;;;;;;;17.26;30.98;95698.47;4969535;28;19968;-67
2023/07/08 02:53:53;;;;;;;;;;;;;;;17.28;31.06;95702.59;4970771;28;19918;-67
2023/07/08 02:56:19;;;;;;;;;;;;;;;17.30;31.19;95699.69;4973443;28;20017;-67
2023/07/08 02:58:44;;;;;;;;;;;;;;;17.28;31.19;95699.91;4962988;28;19929;-67
2023/07/08 03:01:09;;;;;;;;;;;;;;;17.28;31.58;95704.47;4967224;28;19914;-68
2023/07/08 03:03:35;;;;;;;;;;;;;;;17.28;31.09;95707.16;4965848;28;19968;-67
2023/07/08 03:06:01;;;;;;;;;;;;;;;17.26;31.81;95702.00;4967159;28;20359;-67
2023/07/08 03:08:26;;;;;;;;;;;;;;;17.22;32.07;95700.81;4966889;28;20311;-67
2023/07/08 03:10:56;;;;;;;;;;;;;;;17.26;31.60;95703.88;4959799;28;19922;-68
2023/07/08 03:13:21;;;;;;;;;;;;;;;17.20;32.35;95705.56;4972515;28;19912;-67
2023/07/08 03:15:47;;;;;;;;;;;;;;;17.19;32.13;95705.78;4972448;28;19914;-68
2023/07/08 03:18:12;;;;;;;;;;;;;;;17.31;31.59;95708.59;4972971;28;19918;-67
2023/07/08 03:20:39;;;;;;;;;;;;;;;17.37;31.94;95716.59;4964716;28;19917;-67
2023/07/08 03:23:05;;;;;;;;;;;;;;;17.40;31.72;95715.34;4966781;28;19937;-68
2023/07/08 03:25:30;;;;;;;;;;;;;;;17.47;31.71;95715.31;4966310;28;19917;-67
2023/07/08 03:27:57;;;;;;;;;;;;;;;17.43;31.42;95719.47;4969429;28;20017;-67
2023/07/08 03:30:22;;;;;;;;;;;;;;;17.49;31.46;95722.13;4969187;28;19917;-68
2023/07/08 03:32:47;;;;;;;;;;;;;;;17.49;31.80;95715.91;4967995;28;20543;-67
2023/07/08 03:35:13;;;;;;;;;;;;;;;17.52;31.19;95723.53;4970104;28;20100;-67
2023/07/08 03:37:38;;;;;;;;;;;;;;;17.56;31.79;95726.59;4965998;28;19928;-68
2023/07/08 03:40:03;;;;;;;;;;;;;;;17.54;31.22;95718.75;4964309;28;19981;-67
2023/07/08 03:42:29;;;;;;;;;;;;;;;17.52;31.36;95726.22;4969066;28;20439;-67
2023/07/08 03:44:54;;;;;;;;;;;;;;;17.58;31.50;95736.13;4968586;28;19914;-67
2023/07/08 03:47:19;;;;;;;;;;;;;;;17.53;31.45;95735.94;4965413;28;19918;-67
2023/07/08 03:49:44;;;;;;;;;;;;;;;17.58;31.31;95744.19;4970901;28;20295;-67
2023/07/08 03:52:12;;;;;;;;;;;;;;;17.57;31.28;95742.53;4969298;28;19922;-68
2023/07/08 03:54:37;;;;;;;;;;;;;;;17.63;31.31;95743.53;4944746;28;20300;-66
2023/07/08 03:57:03;;;;;;;;;;;;;;;17.60;31.20;95743.94;4964273;28;20331;-67
2023/07/08 03:59:28;;;;;;;;;;;;;;;17.65;31.11;95749.53;4969140;28;19918;-67
2023/07/08 04:01:53;;;;;;;;;;;;;;;17.62;31.30;95742.72;4972969;28;19930;-67
2023/07/08 04:04:19;;;;;;;;;;;;;;;17.64;31.48;95742.50;4969250;28;19952;-67
2023/07/08 04:06:45;;;;;;;;;;;;;;;17.70;31.41;95735.38;4971268;28;19929;-68
2023/07/08 04:09:10;;;;;;;;;;;;;;;17.74;30.80;95740.09;4970826;28;20359;-68
2023/07/08 04:11:35;;;;;;;;;;;;;;;17.76;30.74;95732.66;4968627;28;19924;-67
2023/07/08 04:14:01;;;;;;;;;;;;;;;17.80;31.20;95735.72;4970348;28;19914;-68
2023/07/08 04:16:30;;;;;;;;;;;;;;;17.85;30.71;95743.97;4973213;28;20457;-67
2023/07/08 04:18:55;;;;;;;;;;;;;;;17.89;31.07;95742.50;4957160;28;20009;-67
2023/07/08 04:21:20;;;;;;;;;;;;;;;17.88;31.12;95746.22;4967448;28;20462;-65
2023/07/08 04:23:46;;;;;;;;;;;;;;;17.96;31.08;95747.81;4963594;28;20514;-67
2023/07/08 04:26:11;;;;;;;;;;;;;;;18.04;30.76;95744.00;4965442;28;19910;-67
2023/07/08 04:28:36;;;;;;;;;;;;;;;18.09;30.50;95743.34;4968390;28;19918;-67
2023/07/08 04:31:03;;;;;;;;;;;;;;;18.11;30.44;95741.22;4980077;28;20203;-67
2023/07/08 04:33:28;;;;;;;;;;;;;;;18.17;30.52;95745.72;4970378;28;19914;-67
2023/07/08 04:35:54;;;;;;;;;;;;;;;18.27;30.03;95746.06;4965411;28;20004;-68
2023/07/08 04:38:21;;;;;;;;;;;;;;;18.39;30.42;95742.59;4960028;28;19972;-66
2023/07/08 04:40:46;;;;;;;;;;;;;;;18.52;30.39;95749.69;4964096;28;19918;-67
2023/07/08 04:43:12;;;;;;;;;;;;;;;18.62;30.03;95747.31;4964009;28;19918;-67
2023/07/08 04:45:37;;;;;;;;;;;;;;;18.72;30.16;95752.19;4968108;28;19914;-67
2023/07/08 04:48:08;;;;;;;;;;;;;;;18.85;29.91;95747.66;4971840;28;19941;-68
2023/07/08 04:50:34;;;;;;;;;;;;;;;19.02;29.56;95745.97;4966308;28;20371;-67
2023/07/08 04:52:59;;;;;;;;;;;;;;;19.16;29.60;95753.88;4967139;28;19918;-66
2023/07/08 04:55:24;;;;;;;;;;;;;;;19.35;29.19;95756.53;4969248;28;19917;-67
2023/07/08 04:57:49;;;;;;;;;;;;;;;19.46;29.15;95751.16;4968290;28;19973;-67
2023/07/08 05:00:16;;;;;;;;;;;;;;;19.65;29.37;95755.66;4963896;28;20335;-67
2023/07/08 05:02:42;;;;;;;;;;;;;;;19.75;28.94;95755.88;4958834;28;19918;-67
2023/07/08 05:05:07;;;;;;;;;;;;;;;19.92;28.63;95758.72;4964394;28;20405;-68
2023/07/08 05:07:32;;;;;;;;;;;;;;;20.02;28.50;95758.16;4974842;28;19917;-68
2023/07/08 05:09:58;;;;;;;;;;;;;;;20.17;28.12;95756.84;4978891;28;20016;-67
2023/07/08 05:12:23;;;;;;;;;;;;;;;20.31;28.00;95752.84;4971338;28;19925;-67
2023/07/08 05:14:48;;;;;;;;;;;;;;;20.45;27.81;95749.88;4967046;28;19996;-66
2023/07/08 05:17:13;;;;;;;;;;;;;;;20.58;27.95;95746.91;4967311;28;19995;-67
2023/07/08 05:19:41;;;;;;;;;;;;;;;20.70;27.84;95749.59;4965246;28;19954;-68
2023/07/08 05:22:06;;;;;;;;;;;;;;;20.71;27.29;95750.44;4963274;28;19922;-66
2023/07/08 05:24:32;;;;;;;;;;;;;;;20.95;27.78;95739.53;4960948;28;19918;-67
2023/07/08 05:26:58;;;;;;;;;;;;;;;21.13;27.29;95739.31;4962401;28;20680;-68
2023/07/08 05:29:23;;;;;;;;;;;;;;;21.27;27.06;95744.44;4961949;28;20005;-67
2023/07/08 05:31:49;;;;;;;;;;;;;;;21.38;27.09;95740.84;4963425;28;20038;-67
2023/07/08 05:34:14;;;;;;;;;;;;;;;21.51;26.55;95747.00;4963322;28;20314;-67
2023/07/08 05:36:39;;;;;;;;;;;;;;;21.51;26.55;95747.00;4964214;28;20440;-67
2023/07/08 05:39:05;;;;;;;;;;;;;;;21.54;27.05;95740.28;4970038;28;20063;-67
2023/07/08 05:41:30;;;;;;;;;;;;;;;21.60;26.65;95742.84;4965249;28;19980;-66
2023/07/08 05:43:55;;;;;;;;;;;;;;;21.67;26.90;95752.69;4963883;28;20012;-67
2023/07/08 05:46:21;;;;;;;;;;;;;;;21.71;26.70;95743.81;4963706;28;20077;-68
2023/07/08 05:48:46;;;;;;;;;;;;;;;21.75;27.42;95747.66;4972772;28;19957;-67
2023/07/08 05:51:11;;;;;;;;;;;;;;;21.78;26.89;95743.66;4965995;28;19917;-67
2023/07/08 05:53:36;;;;;;;;;;;;;;;21.76;26.21;95734.97;4976856;28;19914;-67
2023/07/08 05:56:02;;;;;;;;;;;;;;;21.81;27.20;95740.44;4968620;28;20466;-67
2023/07/08 05:58:27;;;;;;;;;;;;;;;21.84;27.09;95733.72;4969214;28;19965;-66
2023/07/08 06:00:56;;;;;;;;;;;;;;;21.85;26.67;95738.88;4967180;28;19952;-66
2023/07/08 06:03:22;;;;;;;;;;;;;;;21.86;26.86;95745.94;4972391;28;20311;-68
2023/07/08 06:05:49;;;;;;;;;;;;;;;21.97;26.97;95743.41;4967566;28;19953;-67
2023/07/08 06:08:14;;;;;;;;;;;;;;;22.24;25.91;95746.25;4961003;28;20328;-67
2023/07/08 06:10:43;;;;;;;;;;;;;;;22.39;26.03;95756.47;4966824;28;19960;-66
2023/07/08 06:13:09;;;;;;;;;;;;;;;22.66;25.10;95741.34;4964263;28;20315;-67
2023/07/08 06:15:34;;;;;;;;;;;;;;;22.91;24.66;95738.09;4962341;28;19929;-68
2023/07/08 06:18:02;;;;;;;;;;;;;;;23.16;24.45;95752.25;4972004;28;20450;-67
2023/07/08 06:20:27;;;;;;;;;;;;;;;23.07;23.89;95751.84;4966445;28;19918;-68
2023/07/08 06:22:52;;;;;;;;;;;;;;;23.09;24.10;95755.13;4966105;28;20290;-66
2023/07/08 06:25:18;;;;;;;;;;;;;;;23.18;23.39;95755.50;4972710;28;20342;-67
2023/07/08 06:27:43;;;;;;;;;;;;;;;23.44;23.61;95753.03;4965732;28;20017;-67
2023/07/08 06:30:08;;;;;;;;;;;;;;;23.53;22.88;95754.19;4964541;28;19914;-66
2023/07/08 06:32:34;;;;;;;;;;;;;;;23.85;22.66;95760.72;4963367;28;19925;-67
2023/07/08 06:34:59;;;;;;;;;;;;;;;23.98;22.73;95756.75;4971602;28;20429;-68
2023/07/08 06:37:24;;;;;;;;;;;;;;;24.06;22.32;95767.13;4968247;28;20369;-67
2023/07/08 06:39:49;;;;;;;;;;;;;;;24.04;22.59;95771.19;4975139;28;19980;-67
2023/07/08 06:42:14;;;;;;;;;;;;;;;23.62;23.05;95768.13;4971306;28;19929;-66
2023/07/08 06:44:41;;;;;;;;;;;;;;;23.64;22.99;95774.13;4975332;28;19918;-68
2023/07/08 06:47:07;;;;;;;;;;;;;;;23.76;22.86;95770.44;4965751;28;20193;-67
2023/07/08 06:49:32;;;;;;;;;;;;;;;23.66;23.35;95766.53;4965644;28;20251;-67
2023/07/08 06:51:59;;;;;;;;;;;;;;;23.68;22.99;95772.53;4972688;28;19918;-68
2023/07/08 06:54:25;;;;;;;;;;;;;;;23.55;23.17;95768.34;4971654;28;20562;-68
2023/07/08 06:56:50;;;;;;;;;;;;;;;23.54;23.12;95764.00;4966776;28;20099;-67
2023/07/08 06:59:15;;;;;;;;;;;;;;;23.57;23.68;95770.81;4968686;28;19967;-66
2023/07/08 07:01:40;;;;;;;;;;;;;;;23.62;23.83;95778.19;4966349;28;19949;-67
2023/07/08 07:04:06;;;;;;;;;;;;;;;23.59;23.78;95773.28;4970562;28;19953;-66
2023/07/08 07:06:31;;;;;;;;;;;;;;;23.67;22.99;95773.63;4969985;28;19918;-77
2023/07/08 07:08:56;;;;;;;;;;;;;;;23.49;23.75;95772.09;4970724;28;19957;-75
2023/07/08 07:11:21;;;;;;;;;;;;;;;23.43;23.46;95775.84;4973369;28;19968;-77
2023/07/08 07:13:47;;;;;;;;;;;;;;;24.10;23.19;95775.56;4978600;28;19964;-78
2023/07/08 07:16:12;;;;;;;;;;;;;;;24.20;23.11;95780.25;4952876;28;20054;-77
2023/07/08 07:18:37;;;;;;;;;;;;;;;24.18;23.02;95783.25;4971507;28;20363;-76
2023/07/08 07:21:03;;;;;;;;;;;;;;;24.10;23.61;95781.00;4968027;28;19961;-77
2023/07/08 07:23:28;;;;;;;;;;;;;;;24.37;22.62;95771.94;4961803;28;20183;-77
2023/07/08 07:25:53;;;;;;;;;;;;;;;24.70;22.48;95782.72;4967392;28;19918;-76
2023/07/08 07:28:19;;;;;;;;;;;;;;;24.70;22.33;95780.00;4972055;28;20444;-78
2023/07/08 07:30:44;;;;;;;;;;;;;;;24.94;22.12;95769.50;4967709;28;20371;-76
2023/07/08 07:33:10;;;;;;;;;;;;;;;24.87;22.23;95774.34;4953958;28;20203;-78
2023/07/08 07:35:35;;;;;;;;;;;;;;;24.78;22.49;95775.97;4966617;28;19918;-77
2023/07/08 07:38:01;;;;;;;;;;;;;;;24.94;22.22;95779.56;4962633;28;20004;-78
2023/07/08 07:40:26;;;;;;;;;;;;;;;25.44;21.50;95782.69;4962208;28;19918;-77
2023/07/08 07:42:51;;;;;;;;;;;;;;;25.62;21.63;95787.91;4969417;28;19925;-79
2023/07/08 07:45:16;;;;;;;;;;;;;;;25.38;21.46;95781.03;4969267;28;20382;-77
2023/07/08 07:47:42;;;;;;;;;;;;;;;25.40;21.30;95778.88;4959891;28;19949;-79
2023/07/08 07:50:07;;;;;;;;;;;;;;;25.44;21.36;95779.97;4962661;28;20330;-79
2023/07/08 07:52:33;;;;;;;;;;;;;;;25.23;20.09;95781.84;4944108;28;19987;-78
2023/07/08 07:54:58;;;;;;;;;;;;;;;25.40;19.62;95787.03;4960602;28;19921;-76
2023/07/08 07:57:23;;;;;;;;;;;;;;;25.39;21.56;95785.38;4970683;28;19933;-75
2023/07/08 07:59:48;;;;;;;;;;;;;;;26.05;19.64;95782.19;4971868;28;19921;-78
2023/07/08 08:02:14;;;;;;;;;;;;;;;26.34;19.95;95787.88;4951708;28;20065;-78
2023/07/08 08:04:39;;;;;;;;;;;;;;;26.30;20.36;95775.06;4972665;28;19964;-76
2023/07/08 08:07:05;;;;;;;;;;;;;;;26.45;20.13;95777.72;4970159;28;19910;-79
2023/07/08 08:09:30;;;;;;;;;;;;;;;26.47;19.73;95786.47;4969679;28;20343;-79
2023/07/08 08:11:55;;;;;;;;;;;;;;;26.74;19.84;95784.50;4970876;28;19921;-78
2023/07/08 08:14:21;;;;;;;;;;;;;;;27.19;19.24;95794.69;4969279;28;19936;-79
2023/07/08 08:16:46;;;;;;;;;;;;;;;26.96;19.37;95792.34;4957835;28;19992;-79
2023/07/08 08:19:11;;;;;;;;;;;;;;;26.83;18.89;95792.91;4968124;28;19925;-77
2023/07/08 08:21:36;;;;;;;;;;;;;;;27.01;20.02;95797.75;4972748;28;19910;-76
2023/07/08 08:24:01;;;;;;;;;;;;;;;26.93;19.56;95795.63;4969206;28;20441;-78
2023/07/08 08:26:27;;;;;;;;;;;;;;;26.98;18.24;95801.03;4970718;28;19917;-79
2023/07/08 08:28:52;;;;;;;;;;;;;;;27.11;18.84;95796.09;4960140;28;19924;-76
2023/07/08 08:31:17;;;;;;;;;;;;;;;27.11;19.15;95793.38;4969765;28;20363;-78
2023/07/08 08:33:43;;;;;;;;;;;;;;;27.31;19.01;95794.34;4960428;28;19928;-79
2023/07/08 08:36:08;;;;;;;;;;;;;;;27.03;18.96;95797.47;4969285;28;20000;-78
2023/07/08 08:38:33;;;;;;;;;;;;;;;27.30;19.09;95795.44;4971179;28;19926;-76
2023/07/08 08:41:02;;;;;;;;;;;;;;;27.24;19.38;95790.03;4967972;28;20116;-79
2023/07/08 08:43:37;;;;;;;;;;;;;;;27.12;19.56;95786.78;4959660;28;20379;-77
2023/07/08 08:46:06;;;;;;;;;;;;;;;27.39;19.04;95780.91;4960239;28;20016;-79
2023/07/08 08:48:32;;;;;;;;;;;;;;;27.36;19.51;95784.19;4972268;28;19913;-77
2023/07/08 08:51:12;;;;;;;;;;;;;;;27.08;19.61;95793.88;4960603;28;19992;-77
2023/07/08 08:53:37;;;;;;;;;;;;;;;27.37;19.05;95782.28;4959582;28;20000;-78
2023/07/08 08:56:09;;;;;;;;;;;;;;;27.64;19.26;95778.31;4953736;28;20465;-80
2023/07/08 08:58:40;;;;;;;;;;;;;;;27.84;18.02;95782.75;4968868;28;20126;-78
2023/07/08 09:01:07;;;;;;;;;;;;;;;27.98;18.85;95785.69;4959982;28;20017;-79
2023/07/08 09:03:53;;;;;;;;;;;;;;;28.18;18.83;95792.09;4961447;28;20016;-78
2023/07/08 09:06:21;;;;;;;;;;;;;;;28.03;19.24;95788.34;4968828;28;19984;-79
2023/07/08 09:08:46;;;;;;;;;;;;;;;28.60;18.86;95794.38;4971131;28;20029;-76
2023/07/08 09:11:17;;;;;;;;;;;;;;;28.56;19.05;95796.88;4958977;28;20020;-77
2023/07/08 09:13:43;;;;;;;;;;;;;;;28.73;18.08;95790.16;4972867;28;19910;-79
2023/07/08 09:16:20;;;;;;;;;;;;;;;28.59;18.26;95793.56;4964695;28;19929;-77
2023/07/08 09:19:04;;;;;;;;;;;;;;;28.85;18.21;95808.91;4969506;28;20375;-77
2023/07/08 09:21:48;;;;;;;;;;;;;;;29.01;18.05;95790.34;4974419;28;19941;-78
2023/07/08 09:24:17;;;;;;;;;;;;;;;29.21;18.70;95800.25;4965378;28;20556;-79
2023/07/08 09:26:42;;;;;;;;;;;;;;;29.43;17.71;95796.91;4942185;28;19931;-76
2023/07/08 09:29:08;;;;;;;;;;;;;;;29.39;17.89;95798.63;4975122;28;19918;-76
2023/07/08 09:31:36;;;;;;;;;;;;;;;29.64;16.74;95793.03;4970333;28;19988;-79
2023/07/08 09:34:06;;;;;;;;;;;;;;;29.91;16.66;95795.09;4963113;28;20261;-79
2023/07/08 09:36:31;;;;;;;;;;;;;;;29.37;17.82;95798.09;4962300;28;19956;-78
2023/07/08 09:38:56;;;;;;;;;;;;;;;29.89;16.83;95791.03;4971305;28;19989;-77
2023/07/08 09:41:40;;;;;;;;;;;;;;;29.51;17.27;95806.41;4966648;28;20008;-79
2023/07/08 09:44:16;;;;;;;;;;;;;;;29.70;17.37;95780.91;4935855;28;19933;-77
2023/07/08 09:46:41;;;;;;;;;;;;;;;29.92;16.86;95796.75;4959685;28;19940;-79
2023/07/08 09:49:15;;;;;;;;;;;;;;;29.99;16.81;95795.53;4956218;28;19918;-76
2023/07/08 09:51:41;;;;;;;;;;;;;;;30.05;16.98;95797.88;4968295;28;19914;-78
2023/07/08 09:54:07;;;;;;;;;;;;;;;30.42;15.80;95802.75;4967627;28;19941;-78
2023/07/08 09:56:32;;;;;;;;;;;;;;;30.31;16.52;95804.84;4974022;28;19921;-77
2023/07/08 09:58:57;;;;;;;;;;;;;;;30.43;16.39;95793.41;4958796;28;19964;-78
2023/07/08 10:01:24;;;;;;;;;;;;;;;30.16;16.93;95797.72;4964376;28;19918;-78
2023/07/08 10:03:49;;;;;;;;;;;;;;;30.21;16.96;95792.13;4957201;28;19969;-79
2023/07/08 10:06:16;;;;;;;;;;;;;;;30.86;15.44;95791.50;4970136;28;20166;-78
2023/07/08 10:08:42;;;;;;;;;;;;;;;31.16;16.84;95792.00;4957067;28;20322;-77
2023/07/08 10:11:17;;;;;;;;;;;;;;;30.95;16.21;95784.13;4961864;28;19914;-78
2023/07/08 10:13:43;;;;;;;;;;;;;;;30.98;16.57;95783.53;4970318;28;19910;-78
2023/07/08 10:16:08;;;;;;;;;;;;;;;30.81;16.72;95792.41;4963214;28;19925;-79
2023/07/08 10:18:33;;;;;;;;;;;;;;;30.48;17.08;95790.53;4972171;28;19921;-78
2023/07/08 10:21:01;;;;;;;;;;;;;;;30.77;16.45;95797.72;4958880;28;20407;-79
2023/07/08 10:23:27;;;;;;;;;;;;;;;30.57;17.09;95785.97;4971497;28;20013;-78
2023/07/08 10:25:56;;;;;;;;;;;;;;;31.19;16.63;95796.84;4972738;28;20043;-77
2023/07/08 10:28:25;;;;;;;;;;;;;;;31.84;16.52;95794.81;4958643;28;19918;-77
2023/07/08 10:31:17;;;;;;;;;;;;;;;31.78;16.33;95796.06;4958566;28;20007;-78
2023/07/08 10:33:55;;;;;;;;;;;;;;;31.44;16.02;95789.97;4940789;28;20144;-77
2023/07/08 10:36:23;;;;;;;;;;;;;;;31.83;16.00;95779.44;4946251;28;20604;-77
2023/07/08 10:39:12;;;;;;;;;;;;;;;31.85;16.00;95781.88;4957122;28;20009;-79
2023/07/08 10:41:50;;;;;;;;;;;;;;;32.02;15.77;95786.69;4958606;28;20148;-77
2023/07/08 10:44:20;;;;;;;;;;;;;;;32.52;14.66;95787.59;4969018;28;19980;-78
2023/07/08 10:46:52;;;;;;;;;;;;;;;32.12;15.56;95780.13;4959703;28;20881;-79
2023/07/08 10:49:29;;;;;;;;;;;;;;;32.60;15.64;95783.28;4959805;28;20012;-78
2023/07/08 10:51:54;;;;;;;;;;;;;;;32.24;16.69;95779.53;4954794;28;19926;-78
2023/07/08 10:54:23;;;;;;;;;;;;;;;32.31;15.79;95779.91;4972619;28;19973;-78
2023/07/08 10:56:55;;;;;;;;;;;;;;;32.52;15.52;95775.78;4961659;28;19914;-79
2023/07/08 10:59:23;;;;;;;;;;;;;;;32.88;15.14;95780.28;4958971;28;20266;-79
2023/07/08 11:01:56;;;;;;;;;;;;;;;32.15;16.14;95773.19;4972772;28;19929;-77
2023/07/08 11:04:33;;;;;;;;;;;;;;;32.32;15.70;95770.50;4959653;28;20220;-77
2023/07/08 11:07:08;;;;;;;;;;;;;;;31.82;15.89;95764.06;4976338;28;20211;-77
2023/07/08 11:09:36;;;;;;;;;;;;;;;32.02;16.41;95763.84;4958662;28;19926;-78
2023/07/08 11:12:04;;;;;;;;;;;;;;;32.27;16.22;95773.41;4975974;28;19914;-78
2023/07/08 11:14:49;;;;;;;;;;;;;;;32.65;16.46;95765.81;4960868;28;19910;-78
2023/07/08 11:17:18;;;;;;;;;;;;;;;32.78;15.43;95773.13;4967715;28;20399;-78
2023/07/08 11:19:45;;;;;;;;;;;;;;;32.94;14.98;95779.00;4960620;28;19914;-77
2023/07/08 11:22:11;;;;;;;;;;;;;;;32.61;15.54;95784.91;4970426;28;20549;-79
2023/07/08 11:24:36;;;;;;;;;;;;;;;33.10;15.24;95787.63;4962037;28;20048;-78
2023/07/08 11:27:10;;;;;;;;;;;;;;;32.74;15.36;95777.66;4971714;28;20362;-78
2023/07/08 11:29:56;;;;;;;;;;;;;;;33.54;15.17;95784.13;4972308;28;19960;-78
2023/07/08 11:32:21;;;;;;;;;;;;;;;33.41;15.09;95785.09;4969911;28;20342;-78
2023/07/08 11:34:47;;;;;;;;;;;;;;;33.96;15.05;95782.81;4959700;28;19913;-78
2023/07/08 11:37:13;;;;;;;;;;;;;;;34.20;15.21;95778.69;4960957;28;20009;-79
2023/07/08 11:39:39;;;;;;;;;;;;;;;33.72;14.55;95784.13;4972673;28;20398;-77
2023/07/08 11:42:05;;;;;;;;;;;;;;;33.72;14.48;95790.47;4960950;28;19913;-78
2023/07/08 11:44:32;;;;;;;;;;;;;;;33.42;14.56;95783.94;4961382;28;20010;-79
2023/07/08 11:46:57;;;;;;;;;;;;;;;33.86;14.46;95779.25;4960406;28;19918;-78
2023/07/08 11:49:22;;;;;;;;;;;;;;;33.92;14.63;95771.63;4971640;28;20298;-78
2023/07/08 11:51:47;;;;;;;;;;;;;;;34.05;14.27;95777.28;4971102;28;19926;-77
2023/07/08 11:54:14;;;;;;;;;;;;;;;34.57;13.50;95773.56;4961563;28;19910;-79
2023/07/08 11:56:55;;;;;;;;;;;;;;;33.96;14.45;95775.34;4963059;28;20422;-76
2023/07/08 11:59:20;;;;;;;;;;;;;;;34.46;14.20;95770.31;4970430;28;20282;-77
2023/07/08 12:01:47;;;;;;;;;;;;;;;34.91;13.63;95774.50;4957963;28;19918;-79
2023/07/08 12:04:12;;;;;;;;;;;;;;;34.85;14.10;95773.09;4975289;28;20019;-78
2023/07/08 12:06:37;;;;;;;;;;;;;;;34.61;14.25;95788.31;4973603;28;20615;-77
2023/07/08 12:09:22;;;;;;;;;;;;;;;35.16;12.99;95779.41;4973379;28;19914;-79
2023/07/08 12:11:47;;;;;;;;;;;;;;;34.18;14.36;95778.22;4971261;28;19921;-77
2023/07/08 12:14:14;;;;;;;;;;;;;;;34.70;14.36;95784.69;4962299;28;19909;-78
2023/07/08 12:16:39;;;;;;;;;;;;;;;34.97;13.93;95790.91;4966188;28;19926;-78
2023/07/08 12:19:05;;;;;;;;;;;;;;;35.17;13.55;95784.59;4969932;28;20349;-78
2023/07/08 12:21:30;;;;;;;;;;;;;;;35.41;13.57;95782.34;4959838;28;19914;-78
2023/07/08 12:23:55;;;;;;;;;;;;;;;34.71;13.83;95787.13;4971611;28;20253;-77
2023/07/08 12:26:21;;;;;;;;;;;;;;;35.34;13.42;95788.41;4976102;28;19963;-77
2023/07/08 12:28:46;;;;;;;;;;;;;;;35.48;13.57;95781.81;4965887;28;20012;-77
2023/07/08 12:31:21;;;;;;;;;;;;;;;35.77;13.52;95780.09;4958582;28;19984;-78
2023/07/08 12:33:46;;;;;;;;;;;;;;;35.33;13.63;95784.03;4968615;28;20315;-77
2023/07/08 12:36:14;;;;;;;;;;;;;;;35.60;13.62;95773.56;4960143;28;19918;-78
2023/07/08 12:38:40;;;;;;;;;;;;;;;35.51;12.37;95778.38;4959623;28;19914;-77
2023/07/08 12:41:12;;;;;;;;;;;;;;;35.62;13.30;95779.59;4970971;28;20405;-76
2023/07/08 12:43:38;;;;;;;;;;;;;;;35.18;13.58;95780.69;4954903;28;19976;-78
2023/07/08 12:46:03;;;;;;;;;;;;;;;35.77;13.76;95771.78;4964260;28;19910;-78